createdAt,value
2018-06-27T00:00:04.931Z,1018.83
2018-06-27T00:01:04.638Z,1018.85
2018-06-27T00:02:04.651Z,1018.88
2018-06-27T00:03:04.839Z,1018.84
2018-06-27T00:04:04.694Z,1018.90
2018-06-27T00:05:04.459Z,1018.87
2018-06-27T00:06:04.390Z,1018.89
2018-06-27T00:07:04.400Z,1018.89
2018-06-27T00:08:04.643Z,1018.89
2018-06-27T00:09:04.265Z,1018.85
2018-06-27T00:10:04.230Z,1018.87
2018-06-27T00:11:04.193Z,1018.86
2018-06-27T00:12:04.160Z,1018.91
2018-06-27T00:13:04.126Z,1018.90
2018-06-27T00:14:04.095Z,1018.84
2018-06-27T00:15:04.016Z,1018.86
2018-06-27T00:16:04.020Z,1018.83
2018-06-27T00:17:04.399Z,1018.85
2018-06-27T00:18:03.936Z,1018.85
2018-06-27T00:19:03.864Z,1018.82
2018-06-27T00:20:03.822Z,1018.85
2018-06-27T00:21:03.797Z,1018.85
2018-06-27T00:22:04.133Z,1018.83
2018-06-27T00:23:14.476Z,1018.83
2018-06-27T00:24:03.802Z,1018.82
2018-06-27T00:25:03.636Z,1018.81
2018-06-27T00:26:03.584Z,1018.84
2018-06-27T00:27:03.574Z,1018.84
2018-06-27T00:28:03.537Z,1018.82
2018-06-27T00:29:03.875Z,1018.80
2018-06-27T00:30:03.457Z,1018.80
2018-06-27T00:31:03.392Z,1018.76
2018-06-27T00:32:03.342Z,1018.79
2018-06-27T00:33:03.348Z,1018.76
2018-06-27T00:34:03.291Z,1018.73
2018-06-27T00:35:03.224Z,1018.74
2018-06-27T00:36:03.182Z,1018.73
2018-06-27T00:37:03.173Z,1018.78
2018-06-27T00:38:03.127Z,1018.79
2018-06-27T00:39:03.132Z,1018.80
2018-06-27T00:40:03.362Z,1018.80
2018-06-27T00:41:03.016Z,1018.80
2018-06-27T00:42:02.955Z,1018.79
2018-06-27T00:43:03.190Z,1018.79
2018-06-27T00:44:03.170Z,1018.79
2018-06-27T00:45:02.834Z,1018.78
2018-06-27T00:46:02.791Z,1018.76
2018-06-27T00:47:13.132Z,1018.76
2018-06-27T00:48:02.718Z,1018.75
2018-06-27T00:49:02.681Z,1018.75
2018-06-27T00:50:02.975Z,1018.72
2018-06-27T00:51:02.605Z,1018.74
2018-06-27T00:52:02.546Z,1018.75
2018-06-27T00:53:02.882Z,1018.72
2018-06-27T00:54:02.486Z,1018.78
2018-06-27T00:55:02.715Z,1018.75
2018-06-27T00:56:02.846Z,1018.73
2018-06-27T00:57:02.350Z,1018.73
2018-06-27T00:58:02.338Z,1018.75
2018-06-27T00:59:02.266Z,1018.72
2018-06-27T01:00:02.461Z,1018.74
2018-06-27T01:01:02.175Z,1018.76
2018-06-27T01:02:02.145Z,1018.76
2018-06-27T01:03:02.118Z,1018.76
2018-06-27T01:04:02.061Z,1018.75
2018-06-27T01:05:02.032Z,1018.75
2018-06-27T01:06:02.360Z,1018.73
2018-06-27T01:07:01.963Z,1018.77
2018-06-27T01:08:01.900Z,1018.75
2018-06-27T01:09:01.870Z,1018.75
2018-06-27T01:10:01.817Z,1018.75
2018-06-27T01:11:01.811Z,1018.71
2018-06-27T01:12:12.969Z,1018.75
2018-06-27T01:13:01.773Z,1018.72
2018-06-27T01:14:01.667Z,1018.71
2018-06-27T01:15:01.837Z,1018.72
2018-06-27T01:16:01.596Z,1018.74
2018-06-27T01:17:01.573Z,1018.71
2018-06-27T01:18:01.550Z,1018.75
2018-06-27T01:19:01.820Z,1018.72
2018-06-27T01:20:01.453Z,1018.75
2018-06-27T01:21:01.400Z,1018.72
2018-06-27T01:22:01.350Z,1018.74
2018-06-27T01:23:01.306Z,1018.73
2018-06-27T01:24:01.508Z,1018.74
2018-06-27T01:25:01.526Z,1018.74
2018-06-27T01:26:01.185Z,1018.70
2018-06-27T01:27:01.180Z,1018.70
2018-06-27T01:28:01.662Z,1018.70
2018-06-27T01:29:01.070Z,1018.70
2018-06-27T01:30:01.019Z,1018.74
2018-06-27T01:31:00.977Z,1018.74
2018-06-27T01:32:01.392Z,1018.74
2018-06-27T01:33:01.157Z,1018.76
2018-06-27T01:34:00.873Z,1018.82
2018-06-27T01:35:11.323Z,1018.81
2018-06-27T01:36:00.783Z,1018.79
2018-06-27T01:37:01.046Z,1018.79
2018-06-27T01:38:00.967Z,1018.81
2018-06-27T01:39:01.173Z,1018.79
2018-06-27T01:40:00.638Z,1018.78
2018-06-27T01:41:00.580Z,1018.83
2018-06-27T01:42:00.834Z,1018.84
2018-06-27T01:43:00.527Z,1018.85
2018-06-27T01:44:00.463Z,1018.85
2018-06-27T01:45:00.426Z,1018.88
2018-06-27T01:46:00.692Z,1018.86
2018-06-27T01:47:00.676Z,1018.86
2018-06-27T01:48:00.343Z,1018.84
2018-06-27T01:49:00.275Z,1018.84
2018-06-27T01:50:00.229Z,1018.90
2018-06-27T01:51:00.193Z,1018.92
2018-06-27T01:52:00.480Z,1018.87
2018-06-27T01:53:00.521Z,1018.90
2018-06-27T01:54:00.048Z,1018.88
2018-06-27T01:55:00.445Z,1018.88
2018-06-27T01:55:59.971Z,1018.88
2018-06-27T01:56:59.930Z,1018.90
2018-06-27T01:58:00.285Z,1018.89
2018-06-27T01:58:59.859Z,1018.90
2018-06-27T01:59:59.830Z,1018.90
2018-06-27T02:00:59.768Z,1018.93
2018-06-27T02:01:59.762Z,1018.91
2018-06-27T02:03:00.026Z,1018.94
2018-06-27T02:03:59.692Z,1018.95
2018-06-27T02:04:59.963Z,1018.94
2018-06-27T02:05:59.561Z,1018.92
2018-06-27T02:06:59.532Z,1018.98
2018-06-27T02:07:59.507Z,1018.96
2018-06-27T02:08:59.490Z,1018.95
2018-06-27T02:09:59.418Z,1019.00
2018-06-27T02:10:59.388Z,1018.98
2018-06-27T02:11:59.644Z,1018.97
2018-06-27T02:12:59.325Z,1018.99
2018-06-27T02:13:59.271Z,1018.98
2018-06-27T02:14:59.226Z,1018.96
2018-06-27T02:15:59.205Z,1018.96
2018-06-27T02:16:59.145Z,1018.93
2018-06-27T02:17:59.092Z,1018.85
2018-06-27T02:18:59.088Z,1018.87
2018-06-27T02:19:59.005Z,1018.84
2018-06-27T02:20:58.989Z,1018.86
2018-06-27T02:22:09.788Z,1018.87
2018-06-27T02:22:58.984Z,1018.86
2018-06-27T02:23:58.842Z,1018.84
2018-06-27T02:24:58.949Z,1018.84
2018-06-27T02:25:58.771Z,1018.87
2018-06-27T02:26:58.724Z,1018.88
2018-06-27T02:27:58.965Z,1018.87
2018-06-27T02:28:58.649Z,1018.87
2018-06-27T02:29:58.653Z,1018.85
2018-06-27T02:30:59.068Z,1018.87
2018-06-27T02:31:58.997Z,1018.88
2018-06-27T02:32:58.478Z,1018.85
2018-06-27T02:33:58.454Z,1018.87
2018-06-27T02:34:58.462Z,1018.85
2018-06-27T02:35:58.383Z,1018.84
2018-06-27T02:36:58.646Z,1018.81
2018-06-27T02:37:58.296Z,1018.87
2018-06-27T02:38:58.487Z,1018.81
2018-06-27T02:39:58.599Z,1018.81
2018-06-27T02:40:58.197Z,1018.80
2018-06-27T02:41:58.592Z,1018.76
2018-06-27T02:42:58.089Z,1018.75
2018-06-27T02:43:58.031Z,1018.77
2018-06-27T02:44:58.030Z,1018.78
2018-06-27T02:46:08.075Z,1018.78
2018-06-27T02:46:58.307Z,1018.78
2018-06-27T02:47:57.893Z,1018.79
2018-06-27T02:48:57.838Z,1018.79
2018-06-27T02:49:58.244Z,1018.79
2018-06-27T02:50:57.799Z,1018.79
2018-06-27T02:51:58.040Z,1018.81
2018-06-27T02:52:58.091Z,1018.78
2018-06-27T02:53:57.664Z,1018.78
2018-06-27T02:54:57.595Z,1018.80
2018-06-27T02:55:57.593Z,1018.76
2018-06-27T02:56:57.517Z,1018.81
2018-06-27T02:57:57.512Z,1018.80
2018-06-27T02:58:57.552Z,1018.77
2018-06-27T02:59:57.516Z,1018.80
2018-06-27T03:00:57.500Z,1018.82
2018-06-27T03:01:57.357Z,1018.78
2018-06-27T03:02:57.289Z,1018.77
2018-06-27T03:03:57.256Z,1018.80
2018-06-27T03:04:57.390Z,1018.79
2018-06-27T03:05:57.154Z,1018.80
2018-06-27T03:06:57.140Z,1018.76
2018-06-27T03:07:57.079Z,1018.73
2018-06-27T03:08:57.214Z,1018.78
2018-06-27T03:09:57.006Z,1018.78
2018-06-27T03:10:56.962Z,1018.80
2018-06-27T03:11:56.973Z,1018.81
2018-06-27T03:12:56.910Z,1018.88
2018-06-27T03:13:56.820Z,1018.86
2018-06-27T03:14:56.792Z,1018.87
2018-06-27T03:15:56.753Z,1018.85
2018-06-27T03:16:56.833Z,1018.82
2018-06-27T03:17:56.703Z,1018.89
2018-06-27T03:18:56.647Z,1018.87
2018-06-27T03:19:56.606Z,1018.90
2018-06-27T03:20:56.589Z,1018.91
2018-06-27T03:21:56.614Z,1018.92
2018-06-27T03:22:56.508Z,1018.93
2018-06-27T03:23:56.540Z,1018.97
2018-06-27T03:24:56.402Z,1018.95
2018-06-27T03:25:56.368Z,1018.93
2018-06-27T03:26:56.363Z,1018.97
2018-06-27T03:27:56.305Z,1018.97
2018-06-27T03:28:56.256Z,1018.98
2018-06-27T03:29:56.236Z,1018.99
2018-06-27T03:30:56.180Z,1018.99
2018-06-27T03:31:56.140Z,1018.96
2018-06-27T03:32:56.086Z,1018.98
2018-06-27T03:33:56.074Z,1018.95
2018-06-27T03:34:56.084Z,1018.97
2018-06-27T03:35:56.080Z,1018.97
2018-06-27T03:36:56.025Z,1018.96
2018-06-27T03:37:55.885Z,1018.97
2018-06-27T03:38:55.853Z,1018.97
2018-06-27T03:39:55.827Z,1018.96
2018-06-27T03:40:55.823Z,1018.93
2018-06-27T03:41:55.760Z,1018.93
2018-06-27T03:42:55.708Z,1018.97
2018-06-27T03:43:55.725Z,1018.96
2018-06-27T03:44:55.685Z,1018.96
2018-06-27T03:45:55.556Z,1018.98
2018-06-27T03:46:55.551Z,1018.99
2018-06-27T03:47:55.483Z,1018.99
2018-06-27T03:48:55.475Z,1019.05
2018-06-27T03:49:55.437Z,1019.02
2018-06-27T03:50:55.504Z,1019.03
2018-06-27T03:51:55.488Z,1019.00
2018-06-27T03:52:55.293Z,1019.04
2018-06-27T03:53:55.250Z,1019.02
2018-06-27T03:54:55.242Z,1019.05
2018-06-27T03:55:55.325Z,1019.07
2018-06-27T03:56:55.224Z,1019.08
2018-06-27T03:57:55.099Z,1019.09
2018-06-27T03:58:55.125Z,1019.09
2018-06-27T03:59:55.047Z,1019.08
2018-06-27T04:00:54.974Z,1019.07
2018-06-27T04:01:54.944Z,1019.08
2018-06-27T04:02:54.887Z,1019.10
2018-06-27T04:03:54.857Z,1019.14
2018-06-27T04:04:54.840Z,1019.15
2018-06-27T04:05:54.821Z,1019.13
2018-06-27T04:06:54.736Z,1019.12
2018-06-27T04:07:54.701Z,1019.15
2018-06-27T04:08:54.667Z,1019.16
2018-06-27T04:09:54.725Z,1019.15
2018-06-27T04:10:54.601Z,1019.15
2018-06-27T04:11:54.637Z,1019.19
2018-06-27T04:12:54.608Z,1019.17
2018-06-27T04:13:54.450Z,1019.21
2018-06-27T04:14:54.629Z,1019.21
2018-06-27T04:15:54.402Z,1019.22
2018-06-27T04:16:54.456Z,1019.23
2018-06-27T04:17:54.390Z,1019.23
2018-06-27T04:18:54.266Z,1019.27
2018-06-27T04:19:54.214Z,1019.23
2018-06-27T04:20:54.182Z,1019.18
2018-06-27T04:21:54.186Z,1019.26
2018-06-27T04:22:54.110Z,1019.25
2018-06-27T04:23:54.068Z,1019.28
2018-06-27T04:24:54.212Z,1019.28
2018-06-27T04:25:53.992Z,1019.30
2018-06-27T04:26:53.964Z,1019.31
2018-06-27T04:27:53.908Z,1019.27
2018-06-27T04:28:53.882Z,1019.32
2018-06-27T04:29:53.846Z,1019.35
2018-06-27T04:30:53.782Z,1019.36
2018-06-27T04:31:53.783Z,1019.40
2018-06-27T04:32:53.712Z,1019.46
2018-06-27T04:33:53.668Z,1019.46
2018-06-27T04:34:53.643Z,1019.50
2018-06-27T04:35:53.659Z,1019.49
2018-06-27T04:36:53.546Z,1019.53
2018-06-27T04:37:53.564Z,1019.56
2018-06-27T04:38:53.471Z,1019.62
2018-06-27T04:39:53.476Z,1019.68
2018-06-27T04:40:53.406Z,1019.67
2018-06-27T04:41:53.350Z,1019.70
2018-06-27T04:42:53.348Z,1019.68
2018-06-27T04:43:53.336Z,1019.69
2018-06-27T04:44:53.265Z,1019.68
2018-06-27T04:45:53.206Z,1019.76
2018-06-27T04:46:53.184Z,1019.72
2018-06-27T04:47:53.153Z,1019.76
2018-06-27T04:48:53.171Z,1019.76
2018-06-27T04:49:53.070Z,1019.77
2018-06-27T04:50:53.038Z,1019.76
2018-06-27T04:51:52.999Z,1019.72
2018-06-27T04:52:52.966Z,1019.76
2018-06-27T04:53:52.901Z,1019.76
2018-06-27T04:54:52.933Z,1019.79
2018-06-27T04:55:52.821Z,1019.74
2018-06-27T04:56:52.833Z,1019.75
2018-06-27T04:57:52.781Z,1019.75
2018-06-27T04:58:52.749Z,1019.74
2018-06-27T04:59:52.713Z,1019.75
2018-06-27T05:00:52.679Z,1019.74
2018-06-27T05:01:52.613Z,1019.72
2018-06-27T05:02:52.595Z,1019.75
2018-06-27T05:03:52.558Z,1019.75
2018-06-27T05:04:52.511Z,1019.79
2018-06-27T05:05:52.506Z,1019.79
2018-06-27T05:06:52.433Z,1019.80
2018-06-27T05:07:52.409Z,1019.79
2018-06-27T05:08:52.402Z,1019.87
2018-06-27T05:09:52.358Z,1019.87
2018-06-27T05:10:52.299Z,1019.88
2018-06-27T05:11:52.296Z,1019.89
2018-06-27T05:12:52.260Z,1019.92
2018-06-27T05:13:52.185Z,1019.87
2018-06-27T05:14:52.181Z,1019.90
2018-06-27T05:15:52.120Z,1019.92
2018-06-27T05:16:52.090Z,1019.94
2018-06-27T05:17:52.075Z,1019.94
2018-06-27T05:18:52.078Z,1019.94
2018-06-27T05:19:52.032Z,1019.95
2018-06-27T05:20:51.955Z,1019.94
2018-06-27T05:21:52.018Z,1019.94
2018-06-27T05:22:51.878Z,1019.93
2018-06-27T05:23:51.854Z,1019.95
2018-06-27T05:24:51.870Z,1019.93
2018-06-27T05:25:51.796Z,1019.93
2018-06-27T05:26:51.775Z,1019.91
2018-06-27T05:27:51.728Z,1019.94
2018-06-27T05:28:51.689Z,1019.98
2018-06-27T05:29:51.654Z,1019.98
2018-06-27T05:30:51.668Z,1020.01
2018-06-27T05:31:51.591Z,1019.99
2018-06-27T05:32:51.559Z,1019.99
2018-06-27T05:33:51.526Z,1019.99
2018-06-27T05:34:51.482Z,1019.96
2018-06-27T05:35:51.472Z,1020.00
2018-06-27T05:36:51.412Z,1020.02
2018-06-27T05:37:51.404Z,1020.08
2018-06-27T05:38:51.378Z,1020.06
2018-06-27T05:39:51.345Z,1020.08
2018-06-27T05:40:51.326Z,1020.12
2018-06-27T05:41:51.256Z,1020.09
2018-06-27T05:42:51.232Z,1020.14
2018-06-27T05:43:51.193Z,1020.14
2018-06-27T05:44:51.150Z,1020.15
2018-06-27T05:45:51.144Z,1020.12
2018-06-27T05:46:51.097Z,1020.14
2018-06-27T05:47:51.084Z,1020.18
2018-06-27T05:48:51.019Z,1020.16
2018-06-27T05:49:51.004Z,1020.15
2018-06-27T05:50:50.997Z,1020.18
2018-06-27T05:51:50.964Z,1020.19
2018-06-27T05:52:50.916Z,1020.21
2018-06-27T05:53:50.852Z,1020.19
2018-06-27T05:54:50.823Z,1020.23
2018-06-27T05:55:50.800Z,1020.20
2018-06-27T05:56:50.832Z,1020.16
2018-06-27T05:57:50.777Z,1020.21
2018-06-27T05:58:50.715Z,1020.16
2018-06-27T05:59:50.678Z,1020.20
2018-06-27T06:00:50.618Z,1020.22
2018-06-27T06:01:50.630Z,1020.25
2018-06-27T06:02:50.583Z,1020.30
2018-06-27T06:03:50.547Z,1020.30
2018-06-27T06:04:50.526Z,1020.35
2018-06-27T06:05:50.476Z,1020.37
2018-06-27T06:06:50.478Z,1020.41
2018-06-27T06:07:50.423Z,1020.45
2018-06-27T06:08:50.374Z,1020.52
2018-06-27T06:09:50.348Z,1020.57
2018-06-27T06:10:50.317Z,1020.65
2018-06-27T06:11:50.289Z,1020.67
2018-06-27T06:12:50.277Z,1020.81
2018-06-27T06:13:50.276Z,1020.79
2018-06-27T06:14:50.208Z,1020.74
2018-06-27T06:15:50.158Z,1020.71
2018-06-27T06:16:50.177Z,1020.71
2018-06-27T06:17:50.156Z,1020.66
2018-06-27T06:18:50.064Z,1020.53
2018-06-27T06:19:50.078Z,1020.42
2018-06-27T06:20:50.009Z,1020.38
2018-06-27T06:21:49.997Z,1020.42
2018-06-27T06:22:49.970Z,1020.53
2018-06-27T06:23:49.895Z,1020.51
2018-06-27T06:24:49.867Z,1020.53
2018-06-27T06:25:49.829Z,1020.45
2018-06-27T06:26:49.785Z,1020.52
2018-06-27T06:27:49.816Z,1020.52
2018-06-27T06:28:49.782Z,1020.54
2018-06-27T06:29:49.715Z,1020.52
2018-06-27T06:30:49.691Z,1020.54
2018-06-27T06:31:49.645Z,1020.59
2018-06-27T06:32:49.607Z,1020.60
2018-06-27T06:33:50.472Z,1020.59
2018-06-27T06:34:49.545Z,1020.63
2018-06-27T06:35:49.515Z,1020.70
2018-06-27T06:36:49.544Z,1020.74
2018-06-27T06:37:49.484Z,1020.77
2018-06-27T06:38:49.477Z,1020.80
2018-06-27T06:39:49.387Z,1020.81
2018-06-27T06:40:49.450Z,1020.87
2018-06-27T06:41:49.335Z,1020.91
2018-06-27T06:42:49.308Z,1020.93
2018-06-27T06:43:49.285Z,1021.02
2018-06-27T06:44:49.230Z,1021.04
2018-06-27T06:45:49.194Z,1021.10
2018-06-27T06:46:49.211Z,1021.12
2018-06-27T06:47:49.131Z,1021.19
2018-06-27T06:48:49.134Z,1021.29
2018-06-27T06:49:49.085Z,1020.39
2018-06-27T06:50:49.112Z,1020.29
2018-06-27T06:51:49.011Z,1020.32
2018-06-27T06:52:48.992Z,1020.45
2018-06-27T06:53:49.002Z,1020.36
2018-06-27T06:54:48.983Z,1020.40
2018-06-27T06:55:48.887Z,1020.54
2018-06-27T06:56:48.911Z,1020.40
2018-06-27T06:57:48.851Z,1020.55
2018-06-27T06:58:48.839Z,1020.45
2018-06-27T06:59:48.808Z,1020.45
2018-06-27T07:00:48.746Z,1020.84
2018-06-27T07:01:48.709Z,1020.73
2018-06-27T07:02:48.667Z,1020.40
2018-06-27T07:03:48.643Z,1020.41
2018-06-27T07:04:48.609Z,1020.41
2018-06-27T07:05:48.647Z,1020.46
2018-06-27T07:06:48.550Z,1020.48
2018-06-27T07:07:58.365Z,1020.44
2018-06-27T07:08:48.533Z,1020.88
2018-06-27T07:09:48.446Z,1020.80
2018-06-27T07:10:48.583Z,1020.76
2018-06-27T07:11:48.447Z,1020.81
2018-06-27T07:12:48.970Z,1020.86
2018-06-27T07:13:48.341Z,1020.76
2018-06-27T07:14:48.307Z,1020.81
2018-06-27T07:15:48.280Z,1020.73
2018-06-27T07:16:48.248Z,1020.70
2018-06-27T07:17:48.214Z,1020.69
2018-06-27T07:18:48.181Z,1020.68
2018-06-27T07:19:48.145Z,1020.68
2018-06-27T07:20:48.122Z,1020.66
2018-06-27T07:21:48.105Z,1020.64
2018-06-27T07:22:48.061Z,1020.66
2018-06-27T07:23:48.037Z,1020.56
2018-06-27T07:24:48.013Z,1020.54
2018-06-27T07:25:48.001Z,1020.46
2018-06-27T07:26:47.981Z,1020.53
2018-06-27T07:27:47.921Z,1020.53
2018-06-27T07:28:47.912Z,1020.61
2018-06-27T07:29:47.853Z,1020.64
2018-06-27T07:30:47.800Z,1020.62
2018-06-27T07:31:47.829Z,1020.64
2018-06-27T07:32:47.760Z,1020.64
2018-06-27T07:33:47.731Z,1020.66
2018-06-27T07:34:47.716Z,1020.63
2018-06-27T07:35:47.660Z,1020.61
2018-06-27T07:36:47.669Z,1020.60
2018-06-27T07:37:47.629Z,1020.63
2018-06-27T07:38:47.590Z,1020.65
2018-06-27T07:39:47.534Z,1020.57
2018-06-27T07:40:47.507Z,1020.44
2018-06-27T07:41:47.500Z,1020.57
2018-06-27T07:42:47.466Z,1020.46
2018-06-27T07:43:47.439Z,1020.47
2018-06-27T07:44:47.425Z,1020.52
2018-06-27T07:45:47.374Z,1020.42
2018-06-27T07:46:47.364Z,1020.61
2018-06-27T07:47:47.361Z,1020.67
2018-06-27T07:48:47.277Z,1020.67
2018-06-27T07:49:47.302Z,1020.65
2018-06-27T07:50:47.218Z,1020.63
2018-06-27T07:51:47.191Z,1020.60
2018-06-27T07:52:47.185Z,1020.52
2018-06-27T07:53:47.123Z,1020.45
2018-06-27T07:54:57.974Z,1020.39
2018-06-27T07:55:47.541Z,1020.54
2018-06-27T07:56:47.066Z,1020.45
2018-06-27T07:57:47.105Z,1020.37
2018-06-27T07:58:47.152Z,1020.36
2018-06-27T07:59:46.981Z,1020.61
2018-06-27T08:00:46.909Z,1020.62
2018-06-27T08:01:46.891Z,1020.60
2018-06-27T08:02:46.884Z,1020.58
2018-06-27T08:03:46.878Z,1020.61
2018-06-27T08:04:46.803Z,1020.58
2018-06-27T08:05:46.830Z,1020.52
2018-06-27T08:06:46.765Z,1020.54
2018-06-27T08:07:46.754Z,1020.53
2018-06-27T08:08:46.736Z,1020.56
2018-06-27T08:09:46.687Z,1020.56
2018-06-27T08:10:46.656Z,1020.59
2018-06-27T08:11:46.605Z,1020.57
2018-06-27T08:12:46.574Z,1020.64
2018-06-27T08:13:46.567Z,1020.63
2018-06-27T08:14:46.549Z,1020.63
2018-06-27T08:15:46.535Z,1020.65
2018-06-27T08:16:46.487Z,1020.62
2018-06-27T08:17:57.299Z,1020.64
2018-06-27T08:18:46.417Z,1020.64
2018-06-27T08:19:46.623Z,1020.65
2018-06-27T08:20:46.734Z,1020.60
2018-06-27T08:21:46.337Z,1020.62
2018-06-27T08:22:46.294Z,1020.60
2018-06-27T08:23:46.308Z,1020.60
2018-06-27T08:24:46.280Z,1020.60
2018-06-27T08:25:46.233Z,1020.57
2018-06-27T08:26:46.238Z,1020.62
2018-06-27T08:27:46.178Z,1020.55
2018-06-27T08:28:46.144Z,1020.44
2018-06-27T08:29:46.146Z,1020.42
2018-06-27T08:30:46.109Z,1020.48
2018-06-27T08:31:46.088Z,1020.47
2018-06-27T08:32:46.029Z,1020.42
2018-06-27T08:33:45.999Z,1020.43
2018-06-27T08:35:45.957Z,1020.36
2018-06-27T08:36:45.925Z,1020.53
2018-06-27T08:37:45.888Z,1020.56
2018-06-27T08:38:45.900Z,1020.60
2018-06-27T08:39:45.838Z,1020.55
2018-06-27T08:40:45.851Z,1020.57
2018-06-27T08:41:57.035Z,1020.52
2018-06-27T08:42:45.862Z,1020.50
2018-06-27T08:43:45.773Z,1020.53
2018-06-27T08:44:46.083Z,1020.46
2018-06-27T08:45:45.669Z,1020.46
2018-06-27T08:46:45.625Z,1020.49
2018-06-27T08:47:45.600Z,1020.43
2018-06-27T08:48:45.621Z,1020.44
2018-06-27T08:49:45.573Z,1020.35
2018-06-27T08:50:45.561Z,1020.39
2018-06-27T08:51:45.482Z,1020.42
2018-06-27T08:52:45.495Z,1020.44
2018-06-27T08:53:45.439Z,1020.37
2018-06-27T08:54:45.422Z,1020.31
2018-06-27T08:55:45.415Z,1020.26
2018-06-27T08:56:45.357Z,1020.66
2018-06-27T08:57:45.326Z,1020.36
2018-06-27T08:58:45.347Z,1020.21
2018-06-27T08:59:45.291Z,1020.26
2018-06-27T09:00:45.253Z,1020.28
2018-06-27T09:01:45.262Z,1020.28
2018-06-27T09:02:45.204Z,1020.25
2018-06-27T09:03:45.161Z,1020.22
2018-06-27T09:04:45.159Z,1020.24
2018-06-27T09:05:55.527Z,1020.13
2018-06-27T09:06:45.123Z,1020.14
2018-06-27T09:07:45.071Z,1020.06
2018-06-27T09:08:45.155Z,1020.07
2018-06-27T09:09:45.707Z,1020.15
2018-06-27T09:10:44.996Z,1020.12
2018-06-27T09:11:44.966Z,1020.27
2018-06-27T09:12:44.957Z,1020.18
2018-06-27T09:13:44.887Z,1020.18
2018-06-27T09:14:44.896Z,1020.31
2018-06-27T09:15:44.844Z,1020.32
2018-06-27T09:16:44.848Z,1020.26
2018-06-27T09:17:44.823Z,1020.27
2018-06-27T09:18:44.823Z,1020.27
2018-06-27T09:19:44.749Z,1020.29
2018-06-27T09:20:44.724Z,1020.26
2018-06-27T09:21:44.758Z,1020.36
2018-06-27T09:22:44.680Z,1020.29
2018-06-27T09:23:44.657Z,1020.02
2018-06-27T09:24:44.639Z,1020.04
2018-06-27T09:25:44.590Z,1020.02
2018-06-27T09:26:44.589Z,1020.00
2018-06-27T09:27:44.583Z,1020.03
2018-06-27T09:28:44.522Z,1019.92
2018-06-27T09:29:44.486Z,1019.84
2018-06-27T09:30:44.519Z,1019.86
2018-06-27T09:31:44.445Z,1019.84
2018-06-27T09:32:44.416Z,1019.89
2018-06-27T09:33:44.406Z,1019.87
2018-06-27T09:34:44.366Z,1019.84
2018-06-27T09:35:44.341Z,1019.86
2018-06-27T09:36:44.318Z,1019.93
2018-06-27T09:37:44.321Z,1019.81
2018-06-27T09:38:44.319Z,1019.74
2018-06-27T09:39:44.253Z,1019.76
2018-06-27T09:40:44.226Z,1019.74
2018-06-27T09:41:44.174Z,1019.76
2018-06-27T09:42:44.176Z,1019.75
2018-06-27T09:43:44.177Z,1019.74
2018-06-27T09:44:44.154Z,1019.73
2018-06-27T09:45:44.080Z,1019.72
2018-06-27T09:46:44.076Z,1019.70
2018-06-27T09:47:44.039Z,1019.73
2018-06-27T09:48:44.005Z,1019.73
2018-06-27T09:49:44.020Z,1019.66
2018-06-27T09:50:43.988Z,1019.78
2018-06-27T09:51:43.907Z,1019.66
2018-06-27T09:52:43.909Z,1019.62
2018-06-27T09:53:43.874Z,1019.69
2018-06-27T09:54:43.875Z,1019.72
2018-06-27T09:55:43.848Z,1019.71
2018-06-27T09:56:43.881Z,1019.74
2018-06-27T09:57:43.774Z,1019.81
2018-06-27T09:58:43.765Z,1019.63
2018-06-27T09:59:43.758Z,1019.76
2018-06-27T10:00:43.704Z,1019.68
2018-06-27T10:01:43.707Z,1019.72
2018-06-27T10:02:43.677Z,1019.72
2018-06-27T10:03:43.629Z,1019.74
2018-06-27T10:04:43.610Z,1019.68
2018-06-27T10:05:43.580Z,1019.65
2018-06-27T10:06:43.547Z,1019.61
2018-06-27T10:07:43.551Z,1019.62
2018-06-27T10:08:43.529Z,1019.57
2018-06-27T10:09:43.475Z,1019.56
2018-06-27T10:10:43.482Z,1019.52
2018-06-27T10:11:43.421Z,1019.48
2018-06-27T10:12:43.421Z,1019.55
2018-06-27T10:13:43.368Z,1019.43
2018-06-27T10:14:43.352Z,1019.43
2018-06-27T10:15:43.358Z,1019.41
2018-06-27T10:16:43.291Z,1019.42
2018-06-27T10:17:54.052Z,1019.40
2018-06-27T10:18:43.236Z,1019.38
2018-06-27T10:19:43.226Z,1019.30
2018-06-27T10:20:43.239Z,1019.47
2018-06-27T10:21:44.079Z,1019.63
2018-06-27T10:22:43.187Z,1019.56
2018-06-27T10:23:43.119Z,1019.61
2018-06-27T10:24:43.106Z,1019.57
2018-06-27T10:25:43.099Z,1019.57
2018-06-27T10:26:43.108Z,1019.63
2018-06-27T10:27:43.038Z,1019.49
2018-06-27T10:28:43.013Z,1019.45
2018-06-27T10:29:43.005Z,1019.57
2018-06-27T10:30:42.949Z,1019.55
2018-06-27T10:31:42.993Z,1019.58
2018-06-27T10:32:42.951Z,1019.54
2018-06-27T10:33:42.884Z,1019.22
2018-06-27T10:34:42.869Z,1019.48
2018-06-27T10:35:42.869Z,1019.45
2018-06-27T10:36:42.799Z,1019.35
2018-06-27T10:37:42.810Z,1019.52
2018-06-27T10:38:42.759Z,1019.28
2018-06-27T10:39:42.730Z,1019.07
2018-06-27T10:40:42.718Z,1019.32
2018-06-27T10:41:53.506Z,1019.31
2018-06-27T10:42:42.705Z,1019.52
2018-06-27T10:43:42.638Z,1019.49
2018-06-27T10:44:42.598Z,1019.46
2018-06-27T10:45:43.292Z,1019.39
2018-06-27T10:46:42.566Z,1019.19
2018-06-27T10:47:42.567Z,1019.45
2018-06-27T10:48:42.480Z,1019.21
2018-06-27T10:49:42.484Z,1019.39
2018-06-27T10:50:42.457Z,1019.18
2018-06-27T10:51:42.416Z,1019.08
2018-06-27T10:52:42.420Z,1019.28
2018-06-27T10:53:42.378Z,1019.08
2018-06-27T10:54:42.349Z,1019.17
2018-06-27T10:55:42.344Z,1019.13
2018-06-27T10:56:42.292Z,1019.29
2018-06-27T10:57:42.315Z,1019.36
2018-06-27T10:58:42.245Z,1019.25
2018-06-27T10:59:42.237Z,1019.17
2018-06-27T11:00:42.211Z,1019.09
2018-06-27T11:01:42.164Z,1019.28
2018-06-27T11:02:42.128Z,1019.37
2018-06-27T11:03:42.127Z,1019.39
2018-06-27T11:04:42.102Z,1019.19
2018-06-27T11:05:42.058Z,1019.35
2018-06-27T11:06:42.065Z,1019.17
2018-06-27T11:07:42.014Z,1018.69
2018-06-27T11:08:42.022Z,1019.28
2018-06-27T11:09:41.996Z,1019.26
2018-06-27T11:10:41.947Z,1019.01
2018-06-27T11:11:41.906Z,1019.01
2018-06-27T11:12:41.942Z,1018.99
2018-06-27T11:13:41.911Z,1018.90
2018-06-27T11:14:41.829Z,1019.07
2018-06-27T11:15:41.836Z,1019.10
2018-06-27T11:16:41.784Z,1019.10
2018-06-27T11:17:41.772Z,1018.81
2018-06-27T11:18:41.757Z,1018.78
2018-06-27T11:19:41.704Z,1018.77
2018-06-27T11:20:41.669Z,1018.79
2018-06-27T11:21:41.646Z,1018.90
2018-06-27T11:22:41.621Z,1018.91
2018-06-27T11:23:41.638Z,1018.83
2018-06-27T11:24:41.579Z,1019.01
2018-06-27T11:25:41.542Z,1018.98
2018-06-27T11:26:41.508Z,1018.72
2018-06-27T11:27:41.506Z,1018.40
2018-06-27T11:28:41.470Z,1018.52
2018-06-27T11:29:41.468Z,1018.86
2018-06-27T11:30:41.401Z,1018.64
2018-06-27T11:31:41.369Z,1018.59
2018-06-27T11:32:41.375Z,1018.64
2018-06-27T11:33:41.333Z,1018.68
2018-06-27T11:34:41.313Z,1018.66
2018-06-27T11:35:41.269Z,1018.64
2018-06-27T11:36:41.248Z,1018.65
2018-06-27T11:37:41.209Z,1018.66
2018-06-27T11:38:41.176Z,1018.56
2018-06-27T11:39:41.183Z,1018.65
2018-06-27T11:40:41.138Z,1018.64
2018-06-27T11:41:41.105Z,1018.66
2018-06-27T11:42:41.093Z,1018.59
2018-06-27T11:43:41.045Z,1018.56
2018-06-27T11:44:41.036Z,1018.59
2018-06-27T11:45:41.012Z,1018.59
2018-06-27T11:46:40.947Z,1018.71
2018-06-27T11:47:40.960Z,1018.54
2018-06-27T11:48:40.909Z,1018.53
2018-06-27T11:49:40.895Z,1018.57
2018-06-27T11:50:40.878Z,1018.46
2018-06-27T11:51:40.817Z,1018.48
2018-06-27T11:52:50.243Z,1018.50
2018-06-27T11:53:40.861Z,1018.44
2018-06-27T11:54:40.734Z,1018.30
2018-06-27T11:55:40.753Z,1018.35
2018-06-27T11:56:40.739Z,1018.36
2018-06-27T11:57:40.678Z,1018.79
2018-06-27T11:58:40.618Z,1018.60
2018-06-27T11:59:40.590Z,1018.63
2018-06-27T12:00:40.638Z,1018.62
2018-06-27T12:01:40.547Z,1018.55
2018-06-27T12:02:40.533Z,1018.60
2018-06-27T12:03:40.509Z,1018.58
2018-06-27T12:04:40.443Z,1018.63
2018-06-27T12:05:40.428Z,1018.48